sensor_id;sensor_type;location;lat;lon;timestamp;P1;durP1;ratioP1;P2;durP2;ratioP2
8183;SDS011;4133;48.752;9.088;2022-12-11T00:00:11;18.33;;;10.80;;
8183;SDS011;4133;48.752;9.088;2022-12-11T00:02:39;17.20;;;11.10;;
8183;SDS011;4133;48.752;9.088;2022-12-11T00:05:05;20.27;;;12.13;;
8183;SDS011;4133;48.752;9.088;2022-12-11T00:07:31;20.37;;;11.67;;
8183;SDS011;4133;48.752;9.088;2022-12-11T00:09:57;18.93;;;11.47;;
8183;SDS011;4133;48.752;9.088;2022-12-11T00:12:23;20.00;;;11.73;;
8183;SDS011;4133;48.752;9.088;2022-12-11T00:14:49;19.00;;;11.50;;
8183;SDS011;4133;48.752;9.088;2022-12-11T00:17:15;22.70;;;12.10;;
8183;SDS011;4133;48.752;9.088;2022-12-11T00:19:41;22.50;;;12.13;;
8183;SDS011;4133;48.752;9.088;2022-12-11T00:22:07;21.53;;;11.63;;
8183;SDS011;4133;48.752;9.088;2022-12-11T00:24:33;18.80;;;11.27;;
8183;SDS011;4133;48.752;9.088;2022-12-11T00:26:59;18.80;;;11.30;;
8183;SDS011;4133;48.752;9.088;2022-12-11T00:29:25;18.43;;;11.03;;
8183;SDS011;4133;48.752;9.088;2022-12-11T00:31:51;21.07;;;11.50;;
8183;SDS011;4133;48.752;9.088;2022-12-11T00:34:17;22.53;;;11.77;;
8183;SDS011;4133;48.752;9.088;2022-12-11T00:36:43;17.90;;;10.97;;
8183;SDS011;4133;48.752;9.088;2022-12-11T00:39:09;19.23;;;11.47;;
8183;SDS011;4133;48.752;9.088;2022-12-11T00:41:35;18.80;;;11.20;;
8183;SDS011;4133;48.752;9.088;2022-12-11T00:44:01;20.50;;;11.23;;
8183;SDS011;4133;48.752;9.088;2022-12-11T00:46:27;19.93;;;11.23;;
8183;SDS011;4133;48.752;9.088;2022-12-11T00:48:53;17.37;;;10.37;;
8183;SDS011;4133;48.752;9.088;2022-12-11T00:51:19;17.30;;;10.57;;
8183;SDS011;4133;48.752;9.088;2022-12-11T00:53:45;20.10;;;11.53;;
8183;SDS011;4133;48.752;9.088;2022-12-11T00:56:12;18.97;;;11.63;;
8183;SDS011;4133;48.752;9.088;2022-12-11T00:58:38;19.40;;;11.30;;
8183;SDS011;4133;48.752;9.088;2022-12-11T01:01:13;17.40;;;10.90;;
8183;SDS011;4133;48.752;9.088;2022-12-11T01:03:39;17.13;;;10.50;;
8183;SDS011;4133;48.752;9.088;2022-12-11T01:06:06;18.50;;;11.30;;
8183;SDS011;4133;48.752;9.088;2022-12-11T01:08:32;17.67;;;10.13;;
8183;SDS011;4133;48.752;9.088;2022-12-11T01:11:05;18.83;;;11.13;;
8183;SDS011;4133;48.752;9.088;2022-12-11T01:13:32;18.10;;;11.13;;
8183;SDS011;4133;48.752;9.088;2022-12-11T01:15:58;17.90;;;10.33;;
8183;SDS011;4133;48.752;9.088;2022-12-11T01:18:24;20.97;;;11.57;;
8183;SDS011;4133;48.752;9.088;2022-12-11T01:20:50;16.90;;;10.90;;
8183;SDS011;4133;48.752;9.088;2022-12-11T01:23:16;18.60;;;11.07;;
8183;SDS011;4133;48.752;9.088;2022-12-11T01:25:42;18.43;;;11.43;;
8183;SDS011;4133;48.752;9.088;2022-12-11T01:28:09;20.20;;;11.10;;
8183;SDS011;4133;48.752;9.088;2022-12-11T01:30:35;17.80;;;10.87;;
8183;SDS011;4133;48.752;9.088;2022-12-11T01:33:01;23.33;;;11.47;;
8183;SDS011;4133;48.752;9.088;2022-12-11T01:35:27;17.97;;;10.93;;
8183;SDS011;4133;48.752;9.088;2022-12-11T01:37:53;16.60;;;10.17;;
8183;SDS011;4133;48.752;9.088;2022-12-11T01:40:19;15.43;;;9.90;;
8183;SDS011;4133;48.752;9.088;2022-12-11T01:42:46;18.33;;;10.70;;
8183;SDS011;4133;48.752;9.088;2022-12-11T01:47:38;18.77;;;11.00;;
8183;SDS011;4133;48.752;9.088;2022-12-11T01:50:04;16.93;;;9.93;;
8183;SDS011;4133;48.752;9.088;2022-12-11T01:52:30;18.23;;;10.33;;
8183;SDS011;4133;48.752;9.088;2022-12-11T01:54:56;15.97;;;10.50;;
8183;SDS011;4133;48.752;9.088;2022-12-11T01:57:22;16.93;;;9.80;;
8183;SDS011;4133;48.752;9.088;2022-12-11T01:59:49;16.07;;;9.90;;
8183;SDS011;4133;48.752;9.088;2022-12-11T02:02:19;16.33;;;10.57;;
8183;SDS011;4133;48.752;9.088;2022-12-11T02:04:46;17.60;;;10.67;;
8183;SDS011;4133;48.752;9.088;2022-12-11T02:07:13;15.67;;;9.00;;
8183;SDS011;4133;48.752;9.088;2022-12-11T02:09:40;18.60;;;11.37;;
8183;SDS011;4133;48.752;9.088;2022-12-11T02:12:26;15.87;;;10.10;;
8183;SDS011;4133;48.752;9.088;2022-12-11T02:22:45;15.83;;;10.13;;
8183;SDS011;4133;48.752;9.088;2022-12-11T02:25:31;15.47;;;9.77;;
8183;SDS011;4133;48.752;9.088;2022-12-11T02:30:28;15.70;;;9.57;;
8183;SDS011;4133;48.752;9.088;2022-12-11T02:32:55;15.20;;;9.60;;
8183;SDS011;4133;48.752;9.088;2022-12-11T02:35:23;15.10;;;9.87;;
8183;SDS011;4133;48.752;9.088;2022-12-11T02:37:53;15.70;;;9.67;;
8183;SDS011;4133;48.752;9.088;2022-12-11T02:40:22;15.23;;;9.97;;
8183;SDS011;4133;48.752;9.088;2022-12-11T02:42:49;16.00;;;10.03;;
8183;SDS011;4133;48.752;9.088;2022-12-11T02:45:15;13.97;;;9.40;;
8183;SDS011;4133;48.752;9.088;2022-12-11T02:47:42;15.83;;;9.50;;
8183;SDS011;4133;48.752;9.088;2022-12-11T02:50:10;15.83;;;9.60;;
8183;SDS011;4133;48.752;9.088;2022-12-11T02:52:38;15.63;;;9.83;;
8183;SDS011;4133;48.752;9.088;2022-12-11T02:55:07;14.80;;;9.50;;
8183;SDS011;4133;48.752;9.088;2022-12-11T02:57:36;14.70;;;9.40;;
8183;SDS011;4133;48.752;9.088;2022-12-11T03:00:03;16.13;;;9.43;;
8183;SDS011;4133;48.752;9.088;2022-12-11T03:02:30;15.27;;;9.60;;
8183;SDS011;4133;48.752;9.088;2022-12-11T03:04:56;15.93;;;10.00;;
8183;SDS011;4133;48.752;9.088;2022-12-11T03:07:23;16.47;;;9.47;;
8183;SDS011;4133;48.752;9.088;2022-12-11T03:09:50;15.90;;;9.70;;
8183;SDS011;4133;48.752;9.088;2022-12-11T03:12:18;16.47;;;9.70;;
8183;SDS011;4133;48.752;9.088;2022-12-11T03:14:45;16.13;;;9.83;;
8183;SDS011;4133;48.752;9.088;2022-12-11T03:17:16;18.03;;;10.73;;
8183;SDS011;4133;48.752;9.088;2022-12-11T03:22:20;16.27;;;10.57;;
8183;SDS011;4133;48.752;9.088;2022-12-11T03:24:52;16.03;;;9.87;;
8183;SDS011;4133;48.752;9.088;2022-12-11T03:27:27;16.03;;;10.00;;
8183;SDS011;4133;48.752;9.088;2022-12-11T03:30:04;16.13;;;10.00;;
8183;SDS011;4133;48.752;9.088;2022-12-11T03:32:32;17.77;;;10.10;;
8183;SDS011;4133;48.752;9.088;2022-12-11T03:37:27;14.70;;;9.63;;
8183;SDS011;4133;48.752;9.088;2022-12-11T03:39:57;14.87;;;8.93;;
8183;SDS011;4133;48.752;9.088;2022-12-11T03:42:24;13.33;;;8.53;;
8183;SDS011;4133;48.752;9.088;2022-12-11T03:44:51;15.80;;;9.37;;
8183;SDS011;4133;48.752;9.088;2022-12-11T03:47:19;15.40;;;9.53;;
8183;SDS011;4133;48.752;9.088;2022-12-11T03:49:47;14.93;;;9.47;;
8183;SDS011;4133;48.752;9.088;2022-12-11T03:52:13;14.17;;;8.97;;
8183;SDS011;4133;48.752;9.088;2022-12-11T03:54:41;14.30;;;8.90;;
8183;SDS011;4133;48.752;9.088;2022-12-11T03:57:08;13.93;;;9.07;;
8183;SDS011;4133;48.752;9.088;2022-12-11T03:59:36;14.67;;;9.43;;
8183;SDS011;4133;48.752;9.088;2022-12-11T04:02:02;15.27;;;9.53;;
8183;SDS011;4133;48.752;9.088;2022-12-11T04:04:35;13.97;;;8.63;;
8183;SDS011;4133;48.752;9.088;2022-12-11T04:07:01;15.97;;;9.70;;
8183;SDS011;4133;48.752;9.088;2022-12-11T04:09:27;14.17;;;9.00;;
8183;SDS011;4133;48.752;9.088;2022-12-11T04:11:53;13.97;;;9.37;;
8183;SDS011;4133;48.752;9.088;2022-12-11T04:14:19;14.67;;;9.07;;
8183;SDS011;4133;48.752;9.088;2022-12-11T04:17:04;14.03;;;8.90;;
8183;SDS011;4133;48.752;9.088;2022-12-11T04:19:30;17.77;;;9.73;;
8183;SDS011;4133;48.752;9.088;2022-12-11T04:22:16;14.23;;;9.07;;
8183;SDS011;4133;48.752;9.088;2022-12-11T04:25:01;14.57;;;8.73;;
8183;SDS011;4133;48.752;9.088;2022-12-11T04:27:27;15.27;;;9.17;;
8183;SDS011;4133;48.752;9.088;2022-12-11T04:30:14;14.53;;;8.60;;
8183;SDS011;4133;48.752;9.088;2022-12-11T04:32:40;16.20;;;8.67;;
8183;SDS011;4133;48.752;9.088;2022-12-11T04:35:07;15.37;;;9.50;;
8183;SDS011;4133;48.752;9.088;2022-12-11T04:37:35;13.50;;;9.13;;
8183;SDS011;4133;48.752;9.088;2022-12-11T04:40:02;13.43;;;8.77;;
8183;SDS011;4133;48.752;9.088;2022-12-11T04:42:28;14.13;;;9.30;;
8183;SDS011;4133;48.752;9.088;2022-12-11T04:44:55;13.37;;;8.70;;
8183;SDS011;4133;48.752;9.088;2022-12-11T04:47:21;12.90;;;8.60;;
8183;SDS011;4133;48.752;9.088;2022-12-11T04:49:47;13.30;;;8.47;;
8183;SDS011;4133;48.752;9.088;2022-12-11T04:52:12;15.90;;;9.50;;
8183;SDS011;4133;48.752;9.088;2022-12-11T04:54:38;12.33;;;8.33;;
8183;SDS011;4133;48.752;9.088;2022-12-11T04:57:04;12.57;;;8.73;;
8183;SDS011;4133;48.752;9.088;2022-12-11T04:59:31;13.67;;;9.40;;
8183;SDS011;4133;48.752;9.088;2022-12-11T05:01:57;12.40;;;8.60;;
8183;SDS011;4133;48.752;9.088;2022-12-11T05:04:23;12.60;;;8.33;;
8183;SDS011;4133;48.752;9.088;2022-12-11T05:06:49;15.13;;;9.27;;
8183;SDS011;4133;48.752;9.088;2022-12-11T05:09:16;13.77;;;8.90;;
8183;SDS011;4133;48.752;9.088;2022-12-11T05:11:42;15.20;;;8.57;;
8183;SDS011;4133;48.752;9.088;2022-12-11T05:14:08;14.90;;;9.37;;
8183;SDS011;4133;48.752;9.088;2022-12-11T05:16:34;15.97;;;9.63;;
8183;SDS011;4133;48.752;9.088;2022-12-11T05:19:00;12.93;;;8.90;;
8183;SDS011;4133;48.752;9.088;2022-12-11T05:21:26;14.57;;;8.47;;
8183;SDS011;4133;48.752;9.088;2022-12-11T05:23:52;13.37;;;8.93;;
8183;SDS011;4133;48.752;9.088;2022-12-11T05:26:18;13.83;;;9.37;;
8183;SDS011;4133;48.752;9.088;2022-12-11T05:28:45;11.47;;;8.13;;
8183;SDS011;4133;48.752;9.088;2022-12-11T05:31:13;15.10;;;8.97;;
8183;SDS011;4133;48.752;9.088;2022-12-11T05:33:39;13.20;;;8.40;;
8183;SDS011;4133;48.752;9.088;2022-12-11T05:36:06;12.63;;;7.87;;
8183;SDS011;4133;48.752;9.088;2022-12-11T05:38:36;12.40;;;7.80;;
8183;SDS011;4133;48.752;9.088;2022-12-11T05:41:03;12.67;;;8.20;;
8183;SDS011;4133;48.752;9.088;2022-12-11T05:43:31;13.77;;;8.47;;
8183;SDS011;4133;48.752;9.088;2022-12-11T05:46:04;13.17;;;8.63;;
8183;SDS011;4133;48.752;9.088;2022-12-11T05:48:30;12.37;;;8.60;;
8183;SDS011;4133;48.752;9.088;2022-12-11T05:50:57;15.93;;;8.17;;
8183;SDS011;4133;48.752;9.088;2022-12-11T05:53:23;10.57;;;7.17;;
8183;SDS011;4133;48.752;9.088;2022-12-11T05:55:49;12.40;;;7.83;;
8183;SDS011;4133;48.752;9.088;2022-12-11T05:58:15;13.07;;;8.07;;
8183;SDS011;4133;48.752;9.088;2022-12-11T06:00:46;10.67;;;7.10;;
8183;SDS011;4133;48.752;9.088;2022-12-11T06:03:12;11.47;;;7.57;;
8183;SDS011;4133;48.752;9.088;2022-12-11T06:05:39;12.60;;;8.13;;
8183;SDS011;4133;48.752;9.088;2022-12-11T06:08:05;13.20;;;7.80;;
8183;SDS011;4133;48.752;9.088;2022-12-11T06:10:31;11.77;;;7.60;;
8183;SDS011;4133;48.752;9.088;2022-12-11T06:12:57;13.03;;;7.67;;
8183;SDS011;4133;48.752;9.088;2022-12-11T06:15:23;11.90;;;7.50;;
8183;SDS011;4133;48.752;9.088;2022-12-11T06:17:49;10.93;;;7.10;;
8183;SDS011;4133;48.752;9.088;2022-12-11T06:20:15;12.67;;;7.40;;
8183;SDS011;4133;48.752;9.088;2022-12-11T06:22:41;11.37;;;7.60;;
8183;SDS011;4133;48.752;9.088;2022-12-11T06:25:07;12.80;;;8.30;;
8183;SDS011;4133;48.752;9.088;2022-12-11T06:27:33;12.50;;;7.63;;
8183;SDS011;4133;48.752;9.088;2022-12-11T06:29:59;13.63;;;7.23;;
8183;SDS011;4133;48.752;9.088;2022-12-11T06:32:26;11.37;;;7.77;;
8183;SDS011;4133;48.752;9.088;2022-12-11T06:34:52;11.43;;;7.20;;
8183;SDS011;4133;48.752;9.088;2022-12-11T06:37:18;13.73;;;7.53;;
8183;SDS011;4133;48.752;9.088;2022-12-11T06:39:44;13.77;;;7.70;;
8183;SDS011;4133;48.752;9.088;2022-12-11T06:42:10;11.47;;;7.43;;
8183;SDS011;4133;48.752;9.088;2022-12-11T06:44:35;12.70;;;7.67;;
8183;SDS011;4133;48.752;9.088;2022-12-11T06:47:02;12.33;;;7.60;;
8183;SDS011;4133;48.752;9.088;2022-12-11T06:49:29;13.77;;;7.27;;
8183;SDS011;4133;48.752;9.088;2022-12-11T06:51:55;14.13;;;7.77;;
8183;SDS011;4133;48.752;9.088;2022-12-11T06:54:25;13.93;;;7.23;;
8183;SDS011;4133;48.752;9.088;2022-12-11T06:56:52;12.10;;;7.63;;
8183;SDS011;4133;48.752;9.088;2022-12-11T06:59:18;13.47;;;7.80;;
8183;SDS011;4133;48.752;9.088;2022-12-11T07:01:47;13.50;;;7.40;;
8183;SDS011;4133;48.752;9.088;2022-12-11T07:04:13;13.00;;;7.73;;
8183;SDS011;4133;48.752;9.088;2022-12-11T07:06:39;12.43;;;7.90;;
8183;SDS011;4133;48.752;9.088;2022-12-11T07:09:05;10.40;;;6.73;;
8183;SDS011;4133;48.752;9.088;2022-12-11T07:11:31;12.17;;;6.77;;
8183;SDS011;4133;48.752;9.088;2022-12-11T07:13:58;12.87;;;7.70;;
8183;SDS011;4133;48.752;9.088;2022-12-11T07:16:27;12.80;;;7.67;;
8183;SDS011;4133;48.752;9.088;2022-12-11T07:18:53;12.77;;;8.10;;
8183;SDS011;4133;48.752;9.088;2022-12-11T07:21:19;12.63;;;6.93;;
8183;SDS011;4133;48.752;9.088;2022-12-11T07:23:46;11.47;;;7.43;;
8183;SDS011;4133;48.752;9.088;2022-12-11T07:26:13;12.40;;;7.03;;
8183;SDS011;4133;48.752;9.088;2022-12-11T07:28:40;11.33;;;7.03;;
8183;SDS011;4133;48.752;9.088;2022-12-11T07:31:07;11.57;;;6.83;;
8183;SDS011;4133;48.752;9.088;2022-12-11T07:33:35;11.73;;;7.30;;
8183;SDS011;4133;48.752;9.088;2022-12-11T07:36:03;12.37;;;7.50;;
8183;SDS011;4133;48.752;9.088;2022-12-11T07:38:29;12.83;;;8.50;;
8183;SDS011;4133;48.752;9.088;2022-12-11T07:40:58;13.50;;;8.37;;
8183;SDS011;4133;48.752;9.088;2022-12-11T07:43:24;12.60;;;8.00;;
8183;SDS011;4133;48.752;9.088;2022-12-11T07:45:50;12.70;;;7.47;;
8183;SDS011;4133;48.752;9.088;2022-12-11T07:48:16;12.17;;;8.20;;
8183;SDS011;4133;48.752;9.088;2022-12-11T07:50:42;12.00;;;7.03;;
8183;SDS011;4133;48.752;9.088;2022-12-11T07:53:08;11.20;;;7.33;;
8183;SDS011;4133;48.752;9.088;2022-12-11T07:55:35;11.20;;;7.20;;
8183;SDS011;4133;48.752;9.088;2022-12-11T07:58:01;12.00;;;7.07;;
8183;SDS011;4133;48.752;9.088;2022-12-11T08:00:28;11.47;;;7.00;;
8183;SDS011;4133;48.752;9.088;2022-12-11T08:02:54;11.97;;;8.03;;
8183;SDS011;4133;48.752;9.088;2022-12-11T08:05:20;14.10;;;7.90;;
8183;SDS011;4133;48.752;9.088;2022-12-11T08:07:46;15.87;;;8.10;;
8183;SDS011;4133;48.752;9.088;2022-12-11T08:10:12;12.17;;;7.60;;
8183;SDS011;4133;48.752;9.088;2022-12-11T08:12:38;15.63;;;9.17;;
8183;SDS011;4133;48.752;9.088;2022-12-11T08:15:04;16.17;;;8.82;;
8183;SDS011;4133;48.752;9.088;2022-12-11T08:17:30;16.23;;;9.20;;
8183;SDS011;4133;48.752;9.088;2022-12-11T08:19:56;14.87;;;8.93;;
8183;SDS011;4133;48.752;9.088;2022-12-11T08:22:22;14.23;;;8.57;;
8183;SDS011;4133;48.752;9.088;2022-12-11T08:24:49;14.03;;;8.60;;
8183;SDS011;4133;48.752;9.088;2022-12-11T08:27:15;12.47;;;7.80;;
8183;SDS011;4133;48.752;9.088;2022-12-11T08:29:44;10.93;;;7.73;;
8183;SDS011;4133;48.752;9.088;2022-12-11T08:32:11;16.00;;;8.27;;
8183;SDS011;4133;48.752;9.088;2022-12-11T08:34:39;14.73;;;8.53;;
8183;SDS011;4133;48.752;9.088;2022-12-11T08:37:05;12.67;;;8.00;;
8183;SDS011;4133;48.752;9.088;2022-12-11T08:39:31;14.77;;;8.93;;
8183;SDS011;4133;48.752;9.088;2022-12-11T08:41:57;13.63;;;8.57;;
8183;SDS011;4133;48.752;9.088;2022-12-11T08:44:23;15.20;;;9.23;;
8183;SDS011;4133;48.752;9.088;2022-12-11T08:46:50;14.77;;;9.40;;
8183;SDS011;4133;48.752;9.088;2022-12-11T08:49:16;13.63;;;9.00;;
8183;SDS011;4133;48.752;9.088;2022-12-11T08:51:42;12.80;;;8.53;;
8183;SDS011;4133;48.752;9.088;2022-12-11T08:54:08;16.17;;;8.60;;
8183;SDS011;4133;48.752;9.088;2022-12-11T08:56:35;13.83;;;8.57;;
8183;SDS011;4133;48.752;9.088;2022-12-11T08:59:01;15.30;;;8.80;;
8183;SDS011;4133;48.752;9.088;2022-12-11T09:01:40;14.83;;;8.80;;
8183;SDS011;4133;48.752;9.088;2022-12-11T09:04:06;13.20;;;8.73;;
8183;SDS011;4133;48.752;9.088;2022-12-11T09:06:32;15.80;;;9.40;;
8183;SDS011;4133;48.752;9.088;2022-12-11T09:08:59;13.97;;;8.70;;
8183;SDS011;4133;48.752;9.088;2022-12-11T09:11:27;12.63;;;8.53;;
8183;SDS011;4133;48.752;9.088;2022-12-11T09:13:53;16.13;;;10.03;;
8183;SDS011;4133;48.752;9.088;2022-12-11T09:16:20;14.67;;;9.40;;
8183;SDS011;4133;48.752;9.088;2022-12-11T09:18:47;13.67;;;9.03;;
8183;SDS011;4133;48.752;9.088;2022-12-11T09:21:14;13.93;;;9.63;;
8183;SDS011;4133;48.752;9.088;2022-12-11T09:23:41;14.57;;;9.50;;
8183;SDS011;4133;48.752;9.088;2022-12-11T09:26:08;13.40;;;8.40;;
8183;SDS011;4133;48.752;9.088;2022-12-11T09:28:35;12.93;;;8.63;;
8183;SDS011;4133;48.752;9.088;2022-12-11T09:31:06;13.60;;;8.87;;
8183;SDS011;4133;48.752;9.088;2022-12-11T09:33:32;13.67;;;8.63;;
8183;SDS011;4133;48.752;9.088;2022-12-11T09:35:58;13.03;;;9.03;;
8183;SDS011;4133;48.752;9.088;2022-12-11T09:38:25;13.07;;;8.50;;
8183;SDS011;4133;48.752;9.088;2022-12-11T09:40:51;13.73;;;9.47;;
8183;SDS011;4133;48.752;9.088;2022-12-11T09:43:20;13.67;;;8.87;;
8183;SDS011;4133;48.752;9.088;2022-12-11T09:45:50;13.90;;;8.80;;
8183;SDS011;4133;48.752;9.088;2022-12-11T09:48:17;12.43;;;8.37;;
8183;SDS011;4133;48.752;9.088;2022-12-11T09:50:47;12.40;;;8.07;;
8183;SDS011;4133;48.752;9.088;2022-12-11T09:53:15;13.63;;;8.47;;
8183;SDS011;4133;48.752;9.088;2022-12-11T10:04:07;12.70;;;8.20;;
8183;SDS011;4133;48.752;9.088;2022-12-11T10:06:42;12.40;;;8.57;;
8183;SDS011;4133;48.752;9.088;2022-12-11T10:17:30;13.23;;;8.70;;
8183;SDS011;4133;48.752;9.088;2022-12-11T10:20:02;15.40;;;9.73;;
8183;SDS011;4133;48.752;9.088;2022-12-11T10:22:31;11.47;;;8.10;;
8183;SDS011;4133;48.752;9.088;2022-12-11T10:24:59;11.97;;;8.20;;
8183;SDS011;4133;48.752;9.088;2022-12-11T10:27:34;10.60;;;7.13;;
8183;SDS011;4133;48.752;9.088;2022-12-11T10:32:42;10.90;;;6.70;;
8183;SDS011;4133;48.752;9.088;2022-12-11T10:35:11;10.27;;;6.83;;
8183;SDS011;4133;48.752;9.088;2022-12-11T10:37:42;10.70;;;6.93;;
8183;SDS011;4133;48.752;9.088;2022-12-11T10:40:08;10.17;;;6.83;;
8183;SDS011;4133;48.752;9.088;2022-12-11T10:42:35;10.40;;;7.03;;
8183;SDS011;4133;48.752;9.088;2022-12-11T10:45:02;11.53;;;7.27;;
8183;SDS011;4133;48.752;9.088;2022-12-11T10:47:29;11.40;;;7.73;;
8183;SDS011;4133;48.752;9.088;2022-12-11T10:49:58;12.97;;;7.20;;
8183;SDS011;4133;48.752;9.088;2022-12-11T10:52:36;9.03;;;6.67;;
8183;SDS011;4133;48.752;9.088;2022-12-11T10:55:14;8.87;;;6.57;;
8183;SDS011;4133;48.752;9.088;2022-12-11T10:57:42;10.03;;;6.77;;
8183;SDS011;4133;48.752;9.088;2022-12-11T11:00:25;10.67;;;6.70;;
8183;SDS011;4133;48.752;9.088;2022-12-11T11:02:52;10.13;;;7.20;;
8183;SDS011;4133;48.752;9.088;2022-12-11T11:08:10;10.63;;;6.83;;
8183;SDS011;4133;48.752;9.088;2022-12-11T11:10:37;12.20;;;8.13;;
8183;SDS011;4133;48.752;9.088;2022-12-11T11:13:11;10.80;;;7.00;;
8183;SDS011;4133;48.752;9.088;2022-12-11T11:15:39;11.00;;;7.23;;
8183;SDS011;4133;48.752;9.088;2022-12-11T11:18:09;10.03;;;6.57;;
8183;SDS011;4133;48.752;9.088;2022-12-11T11:20:37;13.13;;;6.57;;
8183;SDS011;4133;48.752;9.088;2022-12-11T11:23:10;9.47;;;6.43;;
8183;SDS011;4133;48.752;9.088;2022-12-11T11:25:38;11.13;;;6.93;;
8183;SDS011;4133;48.752;9.088;2022-12-11T11:31:11;10.50;;;7.03;;
8183;SDS011;4133;48.752;9.088;2022-12-11T11:33:55;11.13;;;7.03;;
8183;SDS011;4133;48.752;9.088;2022-12-11T11:36:23;9.03;;;6.47;;
8183;SDS011;4133;48.752;9.088;2022-12-11T11:41:19;10.10;;;6.63;;
8183;SDS011;4133;48.752;9.088;2022-12-11T11:43:50;8.33;;;5.97;;
8183;SDS011;4133;48.752;9.088;2022-12-11T11:54:24;9.40;;;5.93;;
8183;SDS011;4133;48.752;9.088;2022-12-11T11:56:53;7.80;;;5.67;;
8183;SDS011;4133;48.752;9.088;2022-12-11T12:01:46;8.83;;;5.60;;
8183;SDS011;4133;48.752;9.088;2022-12-11T12:04:12;10.00;;;6.13;;
8183;SDS011;4133;48.752;9.088;2022-12-11T12:06:42;9.17;;;6.37;;
8183;SDS011;4133;48.752;9.088;2022-12-11T12:09:16;8.57;;;5.60;;
8183;SDS011;4133;48.752;9.088;2022-12-11T12:11:48;8.50;;;6.33;;
8183;SDS011;4133;48.752;9.088;2022-12-11T12:14:22;9.33;;;6.10;;
8183;SDS011;4133;48.752;9.088;2022-12-11T12:16:59;10.83;;;6.57;;
8183;SDS011;4133;48.752;9.088;2022-12-11T12:21:57;8.63;;;6.00;;
8183;SDS011;4133;48.752;9.088;2022-12-11T12:27:12;9.10;;;5.90;;
8183;SDS011;4133;48.752;9.088;2022-12-11T12:29:54;10.67;;;6.47;;
8183;SDS011;4133;48.752;9.088;2022-12-11T12:42:47;9.27;;;5.53;;
8183;SDS011;4133;48.752;9.088;2022-12-11T12:45:20;7.97;;;5.60;;
8183;SDS011;4133;48.752;9.088;2022-12-11T12:47:50;8.80;;;5.57;;
8183;SDS011;4133;48.752;9.088;2022-12-11T12:50:18;6.90;;;5.17;;
8183;SDS011;4133;48.752;9.088;2022-12-11T12:52:44;11.17;;;6.37;;
8183;SDS011;4133;48.752;9.088;2022-12-11T12:55:17;9.43;;;6.00;;
8183;SDS011;4133;48.752;9.088;2022-12-11T12:57:48;11.53;;;5.63;;
8183;SDS011;4133;48.752;9.088;2022-12-11T13:02:52;8.97;;;5.70;;
8183;SDS011;4133;48.752;9.088;2022-12-11T13:05:26;8.50;;;5.17;;
8183;SDS011;4133;48.752;9.088;2022-12-11T13:07:55;10.43;;;6.27;;
8183;SDS011;4133;48.752;9.088;2022-12-11T13:10:23;8.17;;;6.00;;
8183;SDS011;4133;48.752;9.088;2022-12-11T13:12:52;8.43;;;5.77;;
8183;SDS011;4133;48.752;9.088;2022-12-11T13:15:29;7.37;;;5.57;;
8183;SDS011;4133;48.752;9.088;2022-12-11T13:17:56;9.20;;;5.83;;
8183;SDS011;4133;48.752;9.088;2022-12-11T13:20:24;9.07;;;5.23;;
8183;SDS011;4133;48.752;9.088;2022-12-11T13:25:20;7.63;;;5.43;;
8183;SDS011;4133;48.752;9.088;2022-12-11T13:27:47;8.93;;;5.43;;
8183;SDS011;4133;48.752;9.088;2022-12-11T13:32:53;42.43;;;30.50;;
8183;SDS011;4133;48.752;9.088;2022-12-11T13:35:21;15.23;;;9.63;;
8183;SDS011;4133;48.752;9.088;2022-12-11T13:37:48;11.17;;;9.73;;
8183;SDS011;4133;48.752;9.088;2022-12-11T13:40:19;13.30;;;9.13;;
8183;SDS011;4133;48.752;9.088;2022-12-11T13:42:47;19.53;;;15.23;;
8183;SDS011;4133;48.752;9.088;2022-12-11T13:45:19;16.20;;;12.20;;
8183;SDS011;4133;48.752;9.088;2022-12-11T13:47:46;40.90;;;28.60;;
8183;SDS011;4133;48.752;9.088;2022-12-11T13:50:28;22.47;;;16.50;;
8183;SDS011;4133;48.752;9.088;2022-12-11T13:52:57;18.97;;;12.90;;
8183;SDS011;4133;48.752;9.088;2022-12-11T13:55:24;14.93;;;10.30;;
8183;SDS011;4133;48.752;9.088;2022-12-11T13:57:51;16.33;;;10.17;;
8183;SDS011;4133;48.752;9.088;2022-12-11T14:00:21;12.83;;;9.53;;
8183;SDS011;4133;48.752;9.088;2022-12-11T14:02:47;15.40;;;11.53;;
8183;SDS011;4133;48.752;9.088;2022-12-11T14:05:14;18.60;;;13.97;;
8183;SDS011;4133;48.752;9.088;2022-12-11T14:07:41;13.50;;;9.87;;
8183;SDS011;4133;48.752;9.088;2022-12-11T14:10:27;14.57;;;9.50;;
8183;SDS011;4133;48.752;9.088;2022-12-11T14:15:23;20.63;;;14.00;;
8183;SDS011;4133;48.752;9.088;2022-12-11T14:17:49;18.73;;;12.23;;
8183;SDS011;4133;48.752;9.088;2022-12-11T14:20:23;48.43;;;28.47;;
8183;SDS011;4133;48.752;9.088;2022-12-11T14:23:16;74.80;;;40.40;;
8183;SDS011;4133;48.752;9.088;2022-12-11T14:25:39;25.90;;;14.57;;
8183;SDS011;4133;48.752;9.088;2022-12-11T14:28:12;22.23;;;14.83;;
8183;SDS011;4133;48.752;9.088;2022-12-11T14:30:41;19.93;;;13.47;;
8183;SDS011;4133;48.752;9.088;2022-12-11T14:33:12;21.13;;;12.87;;
8183;SDS011;4133;48.752;9.088;2022-12-11T14:35:40;19.17;;;11.57;;
8183;SDS011;4133;48.752;9.088;2022-12-11T14:38:17;18.70;;;12.37;;
8183;SDS011;4133;48.752;9.088;2022-12-11T14:40:46;17.87;;;11.83;;
8183;SDS011;4133;48.752;9.088;2022-12-11T14:43:23;19.60;;;10.97;;
8183;SDS011;4133;48.752;9.088;2022-12-11T14:45:52;16.03;;;10.93;;
8183;SDS011;4133;48.752;9.088;2022-12-11T14:48:20;20.40;;;12.57;;
8183;SDS011;4133;48.752;9.088;2022-12-11T14:50:52;21.40;;;12.50;;
8183;SDS011;4133;48.752;9.088;2022-12-11T14:53:20;18.73;;;10.97;;
8183;SDS011;4133;48.752;9.088;2022-12-11T14:55:47;19.03;;;11.30;;
8183;SDS011;4133;48.752;9.088;2022-12-11T14:58:17;16.20;;;10.37;;
8183;SDS011;4133;48.752;9.088;2022-12-11T15:00:54;16.47;;;10.63;;
8183;SDS011;4133;48.752;9.088;2022-12-11T15:03:21;16.23;;;10.80;;
8183;SDS011;4133;48.752;9.088;2022-12-11T15:05:49;17.07;;;10.70;;
8183;SDS011;4133;48.752;9.088;2022-12-11T15:08:16;17.87;;;11.03;;
8183;SDS011;4133;48.752;9.088;2022-12-11T15:11:09;19.33;;;11.43;;
8183;SDS011;4133;48.752;9.088;2022-12-11T15:13:36;18.00;;;10.80;;
8183;SDS011;4133;48.752;9.088;2022-12-11T15:16:04;17.63;;;11.57;;
8183;SDS011;4133;48.752;9.088;2022-12-11T15:18:38;16.17;;;10.87;;
8183;SDS011;4133;48.752;9.088;2022-12-11T15:21:06;20.27;;;12.00;;
8183;SDS011;4133;48.752;9.088;2022-12-11T15:26:13;18.13;;;11.60;;
8183;SDS011;4133;48.752;9.088;2022-12-11T15:28:39;17.73;;;11.23;;
8183;SDS011;4133;48.752;9.088;2022-12-11T15:31:06;18.30;;;11.57;;
8183;SDS011;4133;48.752;9.088;2022-12-11T15:33:32;17.10;;;10.83;;
8183;SDS011;4133;48.752;9.088;2022-12-11T15:36:05;18.83;;;11.27;;
8183;SDS011;4133;48.752;9.088;2022-12-11T15:38:33;18.47;;;11.20;;
8183;SDS011;4133;48.752;9.088;2022-12-11T15:41:00;20.70;;;12.07;;
8183;SDS011;4133;48.752;9.088;2022-12-11T15:43:26;19.30;;;11.53;;
8183;SDS011;4133;48.752;9.088;2022-12-11T15:45:53;16.90;;;10.90;;
8183;SDS011;4133;48.752;9.088;2022-12-11T15:48:19;20.27;;;11.00;;
8183;SDS011;4133;48.752;9.088;2022-12-11T15:50:45;20.33;;;11.63;;
8183;SDS011;4133;48.752;9.088;2022-12-11T15:53:11;19.03;;;10.93;;
8183;SDS011;4133;48.752;9.088;2022-12-11T15:55:37;22.20;;;11.93;;
8183;SDS011;4133;48.752;9.088;2022-12-11T15:58:06;22.07;;;11.00;;
8183;SDS011;4133;48.752;9.088;2022-12-11T16:00:33;22.40;;;11.23;;
8183;SDS011;4133;48.752;9.088;2022-12-11T16:03:01;22.77;;;12.00;;
8183;SDS011;4133;48.752;9.088;2022-12-11T16:05:27;26.90;;;12.73;;
8183;SDS011;4133;48.752;9.088;2022-12-11T16:07:53;18.97;;;10.70;;
8183;SDS011;4133;48.752;9.088;2022-12-11T16:10:23;19.57;;;11.80;;
8183;SDS011;4133;48.752;9.088;2022-12-11T16:12:49;18.97;;;11.00;;
8183;SDS011;4133;48.752;9.088;2022-12-11T16:15:15;17.53;;;11.53;;
8183;SDS011;4133;48.752;9.088;2022-12-11T16:17:41;22.13;;;12.47;;
8183;SDS011;4133;48.752;9.088;2022-12-11T16:20:08;23.70;;;12.40;;
8183;SDS011;4133;48.752;9.088;2022-12-11T16:22:34;20.63;;;12.40;;
8183;SDS011;4133;48.752;9.088;2022-12-11T16:25:01;21.30;;;12.23;;
8183;SDS011;4133;48.752;9.088;2022-12-11T16:27:27;18.87;;;11.47;;